Terminal Aerodrome Forecast
Issued by NWS Pocatello, ID

Home | Current Version | Previous Version | Text Only | Print | Product List | Glossary On
Versions: 1 2 3 4 5 6 7 8 9 10 11 12 13 14
000
FTUS45 KPIH 202300
TAFPIH
TAF
KPIH 202340Z 2100/2124 17015KT P6SM SCT080
     FM210600 17010KT P6SM VCSH SCT050 BKN090 BKN120
     FM211200 22015G25KT P6SM -SHRA SCT030 BKN050 OVC070
     FM211500 23020G30KT P6SM BKN060 OVC080
     FM211900 24026G36KT P6SM SCT070=

USA.gov is the U.S. government's official web portal to all federal, state and local government web resources and services.